Time;durP1;ratioP1;P1;durP2;ratioP2;P2;SDS_P1;SDS_P2;PMS_P1;PMS_P2;Temp;Humidity;BMP_temperature;BMP_pressure;BME280_temperature;BME280_humidity;BME280_pressure;Samples;Min_cycle;Max_cycle;Signal;HPM_P1;HPM_P2
2022/02/17 00:01:34;;;;;;;0.10;0.10;;;;;;;9.99;100.00;94644.66;5073470;28;24784;-75
2022/02/17 00:04:00;;;;;;;0.30;0.17;;;;;;;9.87;100.00;94644.69;5073192;28;24443;-75
2022/02/17 00:06:27;;;;;;;0.13;0.10;;;;;;;9.91;100.00;94627.97;5072983;28;24418;-75
2022/02/17 00:08:53;;;;;;;0.20;0.00;;;;;;;9.85;100.00;94638.78;5072789;28;24421;-76
2022/02/17 00:11:21;;;;;;;0.40;0.10;;;;;;;9.80;100.00;94648.69;5073180;28;24423;-76
2022/02/17 00:13:47;;;;;;;0.10;0.00;;;;;;;9.71;100.00;94623.53;5073083;28;24449;-77
2022/02/17 00:16:16;;;;;;;2.17;0.43;;;;;;;9.75;100.00;94631.88;5072647;28;25002;-76
2022/02/17 00:18:42;;;;;;;0.30;0.10;;;;;;;9.66;100.00;94633.41;5072873;28;24519;-75
2022/02/17 00:21:09;;;;;;;0.00;0.00;;;;;;;9.68;100.00;94624.59;5072824;28;24640;-76
2022/02/17 00:23:35;;;;;;;0.20;0.00;;;;;;;9.68;100.00;94616.03;5073129;28;20759;-75
2022/02/17 00:26:02;;;;;;;0.10;0.10;;;;;;;9.63;100.00;94610.38;5072630;28;20844;-76
2022/02/17 00:28:30;;;;;;;0.30;0.15;;;;;;;9.58;100.00;94602.16;5072401;28;20766;-76
2022/02/17 00:30:56;;;;;;;0.20;0.20;;;;;;;9.54;100.00;94611.09;5072920;28;20802;-76
2022/02/17 00:33:22;;;;;;;0.30;0.10;;;;;;;9.41;100.00;94600.88;5072549;28;20782;-76
2022/02/17 00:35:49;;;;;;;0.20;0.10;;;;;;;9.38;100.00;94593.34;5072738;28;24429;-76
2022/02/17 00:38:16;;;;;;;0.00;0.00;;;;;;;9.35;100.00;94599.59;5072146;28;24434;-77
2022/02/17 00:40:42;;;;;;;0.55;0.30;;;;;;;9.36;100.00;94608.97;5072624;28;24468;-76
2022/02/17 00:43:09;;;;;;;0.10;0.00;;;;;;;9.33;100.00;94608.41;5072534;28;24430;-76
2022/02/17 00:45:36;;;;;;;0.75;0.10;;;;;;;9.31;100.00;94618.84;5072522;28;24777;-76
2022/02/17 00:48:03;;;;;;;1.15;0.20;;;;;;;9.25;100.00;94621.06;5072236;28;21301;-76
2022/02/17 00:50:30;;;;;;;0.60;0.05;;;;;;;9.18;100.00;94631.88;5072495;28;24429;-76
2022/02/17 00:52:56;;;;;;;0.10;0.10;;;;;;;9.07;100.00;94623.28;5072500;28;24422;-77
2022/02/17 00:55:23;;;;;;;0.00;0.00;;;;;;;9.08;100.00;94625.75;5072245;28;25098;-75
2022/02/17 00:57:49;;;;;;;0.03;0.00;;;;;;;9.06;100.00;94635.38;5072277;28;20796;-75
2022/02/17 01:00:16;;;;;;;0.10;0.08;;;;;;;9.02;100.00;94617.66;5072287;28;20766;-75
2022/02/17 01:02:44;;;;;;;0.20;0.10;;;;;;;9.01;100.00;94616.84;5072158;28;20761;-75
2022/02/17 01:05:10;;;;;;;0.00;0.00;;;;;;;9.04;100.00;94608.84;5071411;28;24959;-75
2022/02/17 01:07:37;;;;;;;0.52;0.10;;;;;;;9.03;100.00;94603.78;5071421;28;24426;-75
2022/02/17 01:10:04;;;;;;;0.10;0.00;;;;;;;8.91;100.00;94608.94;5071960;28;24441;-75
2022/02/17 01:12:31;;;;;;;0.30;0.00;;;;;;;8.91;100.00;94602.97;5071774;28;24441;-75
2022/02/17 01:14:57;;;;;;;2.00;0.20;;;;;;;8.92;100.00;94609.75;5071518;28;24443;-75
2022/02/17 01:17:24;;;;;;;0.00;0.00;;;;;;;8.87;100.00;94607.53;5071426;28;24480;-75
2022/02/17 01:19:52;;;;;;;0.10;0.00;;;;;;;8.86;100.00;94595.56;5071661;28;24435;-75
2022/02/17 01:22:18;;;;;;;0.00;0.00;;;;;;;8.88;100.00;94595.44;5082710;28;24862;-75
2022/02/17 01:24:45;;;;;;;0.00;0.00;;;;;;;8.94;100.00;94571.75;5084151;28;24427;-75
2022/02/17 01:27:11;;;;;;;0.35;0.13;;;;;;;8.94;100.00;94567.41;5071223;28;24435;-75
2022/02/17 01:29:38;;;;;;;0.20;0.20;;;;;;;8.91;100.00;94582.31;5086082;28;24426;-75
2022/02/17 01:32:05;;;;;;;0.22;0.05;;;;;;;8.91;100.00;94582.31;5083165;28;24430;-75
2022/02/17 01:34:32;;;;;;;0.22;0.10;;;;;;;8.85;100.00;94575.81;5091602;28;20772;-75
2022/02/17 01:36:59;;;;;;;0.30;0.10;;;;;;;8.82;100.00;94578.63;5132441;22;20796;-74
2022/02/17 01:39:26;;;;;;;0.20;0.10;;;;;;;8.84;100.00;94584.50;5093277;28;24556;-75
2022/02/17 01:41:52;;;;;;;0.30;0.10;;;;;;;8.86;100.00;94592.13;5093138;28;20809;-75
2022/02/17 01:44:19;;;;;;;1.00;0.10;;;;;;;8.89;100.00;94582.41;5092290;28;24426;-75
2022/02/17 01:46:46;;;;;;;0.28;0.10;;;;;;;8.85;100.00;94603.41;5090943;28;24837;-75
2022/02/17 01:49:13;;;;;;;0.20;0.10;;;;;;;8.85;100.00;94599.06;5096140;28;24547;-75
2022/02/17 01:51:39;;;;;;;0.32;0.13;;;;;;;8.87;100.00;94596.38;5102821;28;24430;-75
2022/02/17 01:54:08;;;;;;;0.50;0.20;;;;;;;8.89;100.00;94590.16;5113463;28;24433;-75
2022/02/17 01:56:37;;;;;;;0.60;0.10;;;;;;;8.85;100.00;94588.72;5112789;28;20762;-75
2022/02/17 01:59:06;;;;;;;0.30;0.00;;;;;;;8.87;100.00;94581.72;5113204;28;20737;-75
2022/02/17 02:01:34;;;;;;;0.00;0.00;;;;;;;8.89;100.00;94579.81;5113295;28;20878;-75
2022/02/17 02:04:01;;;;;;;0.50;0.20;;;;;;;8.87;100.00;94588.63;5111942;28;25004;-75
2022/02/17 02:06:27;;;;;;;1.10;0.20;;;;;;;8.93;100.00;94588.97;5111293;28;24965;-75
2022/02/17 02:08:54;;;;;;;0.60;0.17;;;;;;;8.90;100.00;94580.66;5111125;28;24442;-74
2022/02/17 02:11:22;;;;;;;2.63;1.30;;;;;;;8.95;100.00;94594.03;5111519;28;24500;-75
2022/02/17 02:13:48;;;;;;;0.93;0.60;;;;;;;8.88;100.00;94575.59;5111442;28;20828;-75
2022/02/17 02:16:14;;;;;;;0.80;0.20;;;;;;;8.86;100.00;94580.06;5111165;28;24802;-75
2022/02/17 02:18:41;;;;;;;0.50;0.10;;;;;;;8.84;100.00;94581.13;5111040;28;24479;-75
2022/02/17 02:21:09;;;;;;;0.40;0.10;;;;;;;8.79;100.00;94583.19;5111071;28;24436;-75
2022/02/17 02:23:37;;;;;;;1.40;0.82;;;;;;;8.77;100.00;94590.25;5111309;28;24409;-75
2022/02/17 02:26:04;;;;;;;0.95;0.70;;;;;;;8.77;100.00;94590.25;5111313;28;20790;-76
2022/02/17 02:28:32;;;;;;;0.73;0.22;;;;;;;8.82;100.00;94582.97;5110907;28;20758;-75
2022/02/17 02:31:00;;;;;;;2.58;1.48;;;;;;;8.83;100.00;94595.78;5111045;28;20757;-75
2022/02/17 02:33:27;;;;;;;0.73;0.30;;;;;;;8.77;100.00;94596.22;5111623;28;20750;-75
2022/02/17 02:35:55;;;;;;;0.20;0.10;;;;;;;8.79;100.00;94596.94;5111710;28;24838;-75
2022/02/17 02:38:22;;;;;;;2.13;1.00;;;;;;;8.82;100.00;94588.94;5111132;28;24424;-75
2022/02/17 02:40:49;;;;;;;0.43;0.20;;;;;;;8.78;100.00;94592.69;5111604;28;24861;-76
2022/02/17 02:43:16;;;;;;;0.10;0.10;;;;;;;8.79;100.00;94601.28;5111306;28;24771;-75
2022/02/17 02:45:44;;;;;;;0.55;0.20;;;;;;;8.85;100.00;94586.16;5111212;28;24463;-76
2022/02/17 02:48:12;;;;;;;0.85;0.10;;;;;;;8.83;100.00;94567.38;5111234;28;21205;-76
2022/02/17 02:50:39;;;;;;;0.33;0.17;;;;;;;8.83;100.00;94561.41;5111495;28;24478;-75
2022/02/17 02:53:06;;;;;;;0.00;0.00;;;;;;;8.79;100.00;94553.06;5111892;28;24429;-75
2022/02/17 02:55:34;;;;;;;0.00;0.00;;;;;;;8.80;100.00;94559.88;5113427;28;24445;-76
2022/02/17 02:58:01;;;;;;;0.00;0.00;;;;;;;8.76;100.00;94565.38;5115297;28;24433;-76
2022/02/17 03:00:27;;;;;;;0.40;0.17;;;;;;;8.76;100.00;94548.13;5115655;28;24425;-75
2022/02/17 03:02:54;;;;;;;0.10;0.00;;;;;;;8.84;100.00;94550.13;5115199;28;20818;-75
2022/02/17 03:05:20;;;;;;;0.30;0.10;;;;;;;8.83;100.00;94546.72;5115082;28;24425;-75
2022/02/17 03:07:47;;;;;;;1.80;0.10;;;;;;;8.81;100.00;94553.75;5114617;28;24475;-74
2022/02/17 03:10:14;;;;;;;0.10;0.00;;;;;;;8.75;100.00;94561.97;5114793;28;21330;-75
2022/02/17 03:12:42;;;;;;;0.00;0.00;;;;;;;8.78;100.00;94535.91;5115380;28;24472;-75
2022/02/17 03:15:10;;;;;;;0.10;0.00;;;;;;;8.79;100.00;94572.88;5116121;28;21373;-75
2022/02/17 03:17:36;;;;;;;3.20;0.10;;;;;;;8.76;100.00;94558.44;5116218;28;20773;-75
2022/02/17 03:20:07;;;;;;;0.30;0.10;;;;;;;8.85;100.00;94564.69;5116478;28;24892;-74
2022/02/17 03:22:34;;;;;;;0.10;0.00;;;;;;;8.83;100.00;94553.66;5116375;28;20689;-75
2022/02/17 03:25:01;;;;;;;0.70;0.13;;;;;;;8.85;100.00;94552.59;5116062;28;24410;-74
2022/02/17 03:27:27;;;;;;;0.10;0.10;;;;;;;8.81;100.00;94564.09;5116095;28;24429;-75
2022/02/17 03:29:55;;;;;;;2.90;0.10;;;;;;;8.85;100.00;94536.28;5115901;28;24510;-75
2022/02/17 03:32:22;;;;;;;0.00;0.00;;;;;;;8.85;100.00;94541.44;5114846;28;20816;-75
2022/02/17 03:34:48;;;;;;;0.00;0.00;;;;;;;8.91;100.00;94541.81;5114612;28;24498;-75
2022/02/17 03:37:14;;;;;;;0.10;0.00;;;;;;;9.01;100.00;94554.00;5114315;28;20779;-75
2022/02/17 03:39:41;;;;;;;0.30;0.10;;;;;;;9.06;100.00;94550.16;5114398;28;20766;-75
2022/02/17 03:42:08;;;;;;;0.10;0.00;;;;;;;9.28;100.00;94548.50;5114595;28;20754;-75
2022/02/17 03:44:34;;;;;;;0.00;0.00;;;;;;;9.30;100.00;94541.44;5114165;28;24934;-75
2022/02/17 03:47:03;;;;;;;0.00;0.00;;;;;;;9.32;100.00;94539.56;5113945;28;24906;-75
2022/02/17 03:49:29;;;;;;;0.00;0.00;;;;;;;9.33;100.00;94551.53;5114345;28;24824;-75
2022/02/17 03:51:55;;;;;;;0.00;0.00;;;;;;;9.47;100.00;94548.72;5114429;28;20770;-75
2022/02/17 03:54:22;;;;;;;0.00;0.00;;;;;;;9.43;100.00;94542.97;5113804;28;24441;-75
2022/02/17 03:56:49;;;;;;;0.10;0.00;;;;;;;9.37;100.00;94547.78;5113872;28;24421;-75
2022/02/17 03:59:15;;;;;;;1.00;0.10;;;;;;;9.44;100.00;94548.97;5114087;28;24410;-75
2022/02/17 04:01:41;;;;;;;0.00;0.00;;;;;;;9.50;100.00;94547.66;5113924;28;24422;-76
2022/02/17 04:04:11;;;;;;;0.05;0.00;;;;;;;9.54;100.00;94547.31;5113871;28;24409;-75
2022/02/17 04:06:39;;;;;;;0.20;0.10;;;;;;;9.55;100.00;94530.03;5112757;28;24429;-75
2022/02/17 04:09:06;;;;;;;0.08;0.00;;;;;;;9.58;100.00;94546.13;5113777;28;24449;-75
2022/02/17 04:11:34;;;;;;;0.00;0.00;;;;;;;9.69;100.00;94565.97;5114182;28;24434;-76
2022/02/17 04:14:01;;;;;;;1.13;0.13;;;;;;;9.61;100.00;94565.75;5114508;28;20758;-75
2022/02/17 04:16:29;;;;;;;0.10;0.00;;;;;;;9.58;100.00;94584.91;5114320;28;24425;-75
2022/02/17 04:18:57;;;;;;;0.03;0.00;;;;;;;9.51;100.00;94586.31;5114129;28;24427;-74
2022/02/17 04:21:25;;;;;;;0.20;0.10;;;;;;;9.47;100.00;94566.00;5113740;28;24462;-75
2022/02/17 04:23:51;;;;;;;0.30;0.00;;;;;;;9.50;100.00;94573.50;5113688;28;24787;-74
2022/02/17 04:26:19;;;;;;;0.10;0.00;;;;;;;9.49;100.00;94556.34;5113653;28;24429;-75
2022/02/17 04:28:47;;;;;;;1.80;0.20;;;;;;;9.66;100.00;94584.28;5114850;28;24424;-75
2022/02/17 04:31:15;;;;;;;0.50;0.10;;;;;;;9.56;100.00;94599.69;5113792;28;24830;-75
2022/02/17 04:33:43;;;;;;;0.00;0.00;;;;;;;9.60;100.00;94606.28;5113258;28;24969;-74
2022/02/17 04:36:10;;;;;;;0.00;0.00;;;;;;;9.57;100.00;94616.88;5113238;28;24449;-75
2022/02/17 04:38:38;;;;;;;0.20;0.00;;;;;;;9.50;100.00;94613.09;5112849;28;24461;-75
2022/02/17 04:43:49;;;;;;;0.00;0.00;;;;;;;9.45;100.00;94595.38;5113153;28;20809;-75
2022/02/17 04:46:15;;;;;;;0.10;0.00;;;;;;;9.53;100.00;94586.19;5112886;28;24424;-75
2022/02/17 04:48:42;;;;;;;0.10;0.00;;;;;;;9.68;100.00;94597.94;5112999;28;24442;-74
2022/02/17 04:51:08;;;;;;;0.10;0.08;;;;;;;9.56;100.00;94583.34;5113133;28;24468;-75
2022/02/17 04:53:35;;;;;;;0.20;0.10;;;;;;;9.72;100.00;94581.25;5092600;28;24437;-75
2022/02/17 04:56:03;;;;;;;0.10;0.00;;;;;;;9.65;100.00;94608.50;5088217;28;20782;-75
2022/02/17 04:58:30;;;;;;;0.20;0.00;;;;;;;9.60;100.00;94639.03;5094945;28;24439;-75
2022/02/17 05:00:56;;;;;;;0.00;0.00;;;;;;;9.56;100.00;94619.53;5072044;28;20764;-75
2022/02/17 05:03:24;;;;;;;0.15;0.10;;;;;;;9.58;100.00;94609.91;5071956;28;24944;-75
2022/02/17 05:05:51;;;;;;;0.60;0.20;;;;;;;9.68;100.00;94636.72;5071868;28;24780;-74
2022/02/17 05:08:18;;;;;;;0.10;0.10;;;;;;;9.78;100.00;94631.63;5088347;28;24517;-73
2022/02/17 05:10:44;;;;;;;0.33;0.10;;;;;;;9.66;100.00;94643.75;5072315;28;24453;-78
2022/02/17 05:13:12;;;;;;;0.17;0.10;;;;;;;9.60;100.00;94644.22;5072031;28;24437;-77
2022/02/17 05:15:39;;;;;;;0.80;0.15;;;;;;;9.45;100.00;94659.13;5071507;28;24457;-77
2022/02/17 05:18:06;;;;;;;0.70;0.20;;;;;;;9.36;100.00;94663.25;5071141;28;24497;-78
2022/02/17 05:20:32;;;;;;;0.03;0.03;;;;;;;9.28;100.00;94660.44;5071551;28;21347;-78
2022/02/17 05:22:58;;;;;;;0.20;0.10;;;;;;;9.34;100.00;94679.78;5072044;28;24430;-77
2022/02/17 05:25:25;;;;;;;0.35;0.10;;;;;;;9.41;100.00;94683.56;5088573;28;24434;-78
2022/02/17 05:27:51;;;;;;;0.55;0.25;;;;;;;9.42;100.00;94709.31;5071611;28;24427;-78
2022/02/17 05:30:19;;;;;;;0.13;0.10;;;;;;;9.46;100.00;94696.97;5071571;28;24959;-78
2022/02/17 05:32:46;;;;;;;0.50;0.20;;;;;;;9.56;100.00;94690.16;5071756;28;24820;-77
2022/02/17 05:35:13;;;;;;;0.67;0.30;;;;;;;9.48;100.00;94692.50;5071718;28;20824;-77
2022/02/17 05:37:40;;;;;;;0.60;0.25;;;;;;;9.55;100.00;94723.88;5071312;28;24501;-77
2022/02/17 05:40:11;;;;;;;0.53;0.27;;;;;;;9.39;100.00;94719.06;5071735;28;24422;-77
2022/02/17 05:42:37;;;;;;;0.95;0.30;;;;;;;9.28;100.00;94712.09;5071661;28;24426;-78
2022/02/17 05:45:05;;;;;;;1.52;0.20;;;;;;;9.14;100.00;94710.53;5071666;28;21389;-78
2022/02/17 05:47:33;;;;;;;0.20;0.00;;;;;;;9.11;100.00;94703.00;5071415;28;21187;-78
2022/02/17 05:50:00;;;;;;;2.40;0.20;;;;;;;9.04;100.00;94712.13;5071581;28;20794;-78
2022/02/17 05:52:26;;;;;;;2.40;0.40;;;;;;;9.01;100.00;94721.88;5075152;28;20747;-77
2022/02/17 05:54:53;;;;;;;14.13;0.68;;;;;;;8.98;100.00;94745.38;5091148;28;20787;-77
2022/02/17 05:57:19;;;;;;;1.02;0.60;;;;;;;8.90;100.00;94757.06;5091239;28;24434;-76
2022/02/17 05:59:45;;;;;;;1.70;0.30;;;;;;;8.82;100.00;94737.88;5091448;28;24425;-77
2022/02/17 06:02:12;;;;;;;2.03;0.38;;;;;;;8.82;100.00;94754.19;5091944;28;24822;-76
2022/02/17 06:04:43;;;;;;;1.83;0.67;;;;;;;8.71;100.00;94754.13;5090990;28;24480;-77
2022/02/17 06:07:10;;;;;;;3.33;0.88;;;;;;;8.69;100.00;94780.06;5091047;28;20675;-76
2022/02/17 06:09:36;;;;;;;2.08;0.80;;;;;;;8.58;100.00;94782.59;5090749;28;24425;-76
2022/02/17 06:12:03;;;;;;;4.13;1.00;;;;;;;8.50;100.00;94799.56;5090624;28;24426;-77
2022/02/17 06:14:29;;;;;;;6.67;1.10;;;;;;;8.40;100.00;94802.75;5090825;28;24437;-77
2022/02/17 06:16:56;;;;;;;2.80;0.90;;;;;;;8.33;100.00;94816.97;5090392;28;20814;-78
2022/02/17 06:19:22;;;;;;;3.70;1.20;;;;;;;8.26;100.00;94813.19;5090570;28;21292;-77
2022/02/17 06:21:50;;;;;;;5.35;1.33;;;;;;;8.27;100.00;94822.59;5090635;28;20760;-77
2022/02/17 06:24:17;;;;;;;5.88;1.80;;;;;;;8.17;100.00;94819.81;5090725;28;24426;-77
2022/02/17 06:26:43;;;;;;;4.80;1.50;;;;;;;8.10;100.00;94826.31;5090444;28;24430;-72
2022/02/17 06:29:09;;;;;;;4.43;1.50;;;;;;;8.05;100.00;94841.28;5090552;28;24422;-77
2022/02/17 06:31:36;;;;;;;6.53;1.73;;;;;;;8.06;100.00;94835.19;5090096;28;24959;-77
2022/02/17 06:34:02;;;;;;;5.97;1.77;;;;;;;8.02;100.00;94840.66;5090355;28;24414;-77
2022/02/17 06:36:29;;;;;;;4.93;1.70;;;;;;;7.99;100.00;94852.00;5083377;28;24698;-77
2022/02/17 06:38:56;;;;;;;7.82;1.70;;;;;;;7.90;100.00;94850.06;5087905;28;24483;-76
2022/02/17 06:41:24;;;;;;;4.25;1.70;;;;;;;7.84;100.00;94876.22;5090612;28;20880;-76
2022/02/17 06:43:50;;;;;;;7.35;2.00;;;;;;;7.80;100.00;94882.50;5089885;28;24966;-76
2022/02/17 06:46:17;;;;;;;10.55;2.25;;;;;;;7.68;100.00;94889.31;5087160;28;24955;-78
2022/02/17 06:48:44;;;;;;;8.63;2.27;;;;;;;7.71;100.00;94892.50;5069607;28;24514;-77
2022/02/17 06:51:12;;;;;;;7.60;2.10;;;;;;;7.67;100.00;94903.09;5069962;28;21136;-77
2022/02/17 06:53:39;;;;;;;6.38;1.70;;;;;;;7.67;100.00;94896.19;5073626;28;20768;-77
2022/02/17 06:56:07;;;;;;;4.00;1.35;;;;;;;7.73;100.00;94900.94;5076878;28;24488;-78
2022/02/17 06:58:33;;;;;;;5.35;1.92;;;;;;;7.72;100.00;94907.03;5084660;28;20841;-78
2022/02/17 07:01:00;;;;;;;6.60;2.17;;;;;;;7.73;100.00;94913.00;5090179;28;24425;-77
2022/02/17 07:03:27;;;;;;;7.82;2.20;;;;;;;7.70;100.00;94928.66;5089343;28;21222;-77
2022/02/17 07:05:53;;;;;;;9.95;1.70;;;;;;;7.67;100.00;94940.00;5071587;28;21143;-77
2022/02/17 07:08:20;;;;;;;5.17;1.73;;;;;;;7.92;100.00;94918.59;5091133;28;25215;-78
2022/02/17 07:10:55;;;;;;;6.30;2.10;;;;;;;8.04;100.00;94921.31;5076932;28;24442;-78
2022/02/17 07:13:23;;;;;;;8.87;2.17;;;;;;;8.00;100.00;94926.66;5075026;28;20639;-78
2022/02/17 07:15:51;;;;;;;5.75;2.38;;;;;;;8.01;100.00;94922.34;5092629;28;24974;-78
2022/02/17 07:18:19;;;;;;;5.72;2.30;;;;;;;8.14;100.00;94930.09;5092231;28;20804;-78
2022/02/17 07:20:47;;;;;;;5.22;2.03;;;;;;;8.37;100.00;94929.41;5092839;28;24426;-78
2022/02/17 07:23:15;;;;;;;7.50;2.28;;;;;;;8.31;100.00;94936.72;5092877;28;24433;-77
2022/02/17 07:25:42;;;;;;;6.33;1.90;;;;;;;8.32;100.00;94934.03;5083766;28;20795;-77
2022/02/17 07:28:09;;;;;;;6.13;1.85;;;;;;;8.39;100.00;94937.06;5072028;28;20883;-77
2022/02/17 07:30:37;;;;;;;7.93;2.17;;;;;;;8.43;100.00;94941.88;5070324;28;20749;-78
2022/02/17 07:33:05;;;;;;;9.15;2.08;;;;;;;8.39;100.00;94953.34;5089106;28;20758;-77
2022/02/17 07:35:32;;;;;;;7.07;2.03;;;;;;;8.41;100.00;94959.22;5072832;28;20829;-77
2022/02/17 07:37:58;;;;;;;6.90;1.98;;;;;;;8.36;100.00;94971.59;5088074;28;20776;-78
2022/02/17 07:40:25;;;;;;;10.85;2.50;;;;;;;8.33;100.00;94961.47;5092207;28;24829;-77
2022/02/17 07:42:51;;;;;;;11.07;2.67;;;;;;;8.27;100.00;94963.63;5094755;28;24426;-78
2022/02/17 07:45:18;;;;;;;8.55;2.65;;;;;;;8.30;100.00;94969.41;5094808;28;24435;-80
2022/02/17 07:47:46;;;;;;;8.27;2.88;;;;;;;8.24;100.00;94983.53;5079893;28;20769;-78
2022/02/17 07:50:13;;;;;;;10.70;3.17;;;;;;;8.35;100.00;94982.00;5075007;28;20864;-77
2022/02/17 07:52:39;;;;;;;8.98;2.50;;;;;;;8.38;100.00;94974.94;5073994;28;24422;-78
2022/02/17 07:55:07;;;;;;;9.40;2.70;;;;;;;8.35;100.00;95000.91;5084315;28;24522;-78
2022/02/17 07:57:33;;;;;;;8.93;3.10;;;;;;;8.39;100.00;95004.13;5074844;28;20843;-77
2022/02/17 08:00:00;;;;;;;6.47;2.60;;;;;;;8.35;100.00;95005.25;5074909;28;24427;-79
2022/02/17 08:02:27;;;;;;;9.68;3.25;;;;;;;8.29;100.00;94998.72;5076104;28;21114;-79
2022/02/17 08:04:55;;;;;;;15.68;3.83;;;;;;;8.35;100.00;95003.47;5093545;28;24479;-80
2022/02/17 08:07:31;;;;;;;9.57;3.37;;;;;;;8.48;100.00;95024.97;5086097;28;20856;-80
2022/02/17 08:09:58;;;;;;;7.97;2.80;;;;;;;8.50;100.00;95021.50;5080612;28;24987;-80
2022/02/17 08:12:24;;;;;;;11.95;3.35;;;;;;;8.43;100.00;95036.53;5094311;28;24434;-81
2022/02/17 08:14:51;;;;;;;19.80;3.72;;;;;;;8.35;100.00;95052.50;5098322;28;24525;-79
2022/02/17 08:17:17;;;;;;;10.77;2.90;;;;;;;8.33;100.00;95025.97;5086795;28;24458;-80
2022/02/17 08:19:44;;;;;;;17.10;4.20;;;;;;;8.40;100.00;95052.22;5077344;28;24445;-78
2022/02/17 08:22:12;;;;;;;13.25;3.92;;;;;;;8.46;100.00;95051.84;5075487;28;24426;-77
2022/02/17 08:24:39;;;;;;;13.98;3.75;;;;;;;8.52;100.00;95063.50;5077824;28;24431;-74
2022/02/17 08:27:05;;;;;;;14.13;3.53;;;;;;;8.33;100.00;95061.25;5073406;28;24480;-75
2022/02/17 08:29:32;;;;;;;15.80;4.25;;;;;;;8.50;100.00;95052.47;5075245;28;24476;-75
2022/02/17 08:31:59;;;;;;;10.77;3.55;;;;;;;8.53;100.00;95058.25;5083444;28;20791;-73
2022/02/17 08:34:25;;;;;;;14.13;3.97;;;;;;;8.50;100.00;95063.59;5094603;28;20779;-75
2022/02/17 08:36:53;;;;;;;10.77;3.38;;;;;;;8.57;100.00;95077.75;5094388;28;25030;-75
2022/02/17 08:39:20;;;;;;;10.13;3.75;;;;;;;8.65;100.00;95093.56;5090635;28;24466;-76
2022/02/17 08:41:47;;;;;;;12.47;3.60;;;;;;;8.78;100.00;95083.22;5074515;28;24422;-75
2022/02/17 08:44:14;;;;;;;12.73;3.83;;;;;;;8.82;100.00;95089.84;5077513;28;24572;-78
2022/02/17 08:46:40;;;;;;;17.17;4.05;;;;;;;8.70;100.00;95090.66;5081533;28;20774;-76
2022/02/17 08:49:08;;;;;;;9.68;3.00;;;;;;;8.83;100.00;95070.03;5099626;28;24493;-76
2022/02/17 08:51:37;;;;;;;12.50;3.65;;;;;;;8.69;100.00;95079.53;5099136;28;20789;-77
2022/02/17 08:54:04;;;;;;;12.05;3.78;;;;;;;8.82;100.00;95083.84;5095859;28;20751;-76
2022/02/17 08:56:33;;;;;;;15.88;3.75;;;;;;;8.79;100.00;95095.25;5075673;28;24446;-77
2022/02/17 08:59:00;;;;;;;16.13;3.72;;;;;;;8.76;100.00;95103.19;5077349;28;20760;-77
2022/02/17 09:01:27;;;;;;;14.13;3.75;;;;;;;8.77;95.58;95107.41;5079168;28;24427;-77
2022/02/17 09:03:53;;;;;;;11.65;4.00;;;;;;;8.60;95.96;95097.34;5094765;28;24822;-77
2022/02/17 09:06:20;;;;;;;21.98;4.43;;;;;;;8.54;93.39;95110.69;5095110;28;24775;-77
2022/02/17 09:08:47;;;;;;;16.63;4.40;;;;;;;8.60;94.06;95097.34;5095456;28;20764;-76
2022/02/17 09:11:15;;;;;;;12.05;4.10;;;;;;;8.68;94.06;95120.94;5094077;28;20800;-75
2022/02/17 09:13:46;;;;;;;18.17;4.45;;;;;;;8.70;95.18;95134.56;5093904;28;20815;-78
2022/02/17 09:16:14;;;;;;;14.70;3.92;;;;;;;8.36;93.07;95139.28;5094752;28;20786;-79
2022/02/17 09:18:41;;;;;;;17.80;4.47;;;;;;;8.29;94.05;95132.88;5096833;28;20776;-80
2022/02/17 09:21:08;;;;;;;13.63;4.40;;;;;;;8.21;97.15;95129.94;5096528;28;20760;-79
2022/02/17 09:23:35;;;;;;;14.30;4.15;;;;;;;8.21;95.77;95142.84;5095618;28;24810;-79
2022/02/17 09:26:03;;;;;;;15.93;5.10;;;;;;;8.18;94.38;95137.88;5083080;28;24465;-79
2022/02/17 09:28:36;;;;;;;17.00;4.88;;;;;;;8.16;97.31;95166.38;5074432;28;24433;-79
2022/02/17 09:31:04;;;;;;;14.30;4.53;;;;;;;8.17;95.24;95164.59;5074033;28;24758;-78
2022/02/17 09:33:31;;;;;;;15.10;4.10;;;;;;;8.05;97.89;95170.53;5095939;28;20763;-79
2022/02/17 09:36:04;;;;;;;16.35;4.57;;;;;;;8.00;100.00;95163.91;5097444;28;24460;-80
2022/02/17 09:38:36;;;;;;;13.07;4.38;;;;;;;7.79;100.00;95170.41;5059172;28;20773;-81
2022/02/17 09:41:14;;;;;;;27.83;5.80;;;;;;;7.66;100.00;95174.63;5075698;28;20688;-79
2022/02/17 09:43:59;;;;;;;17.20;4.88;;;;;;;7.59;100.00;95169.03;5075854;28;20674;-80
2022/02/17 09:46:29;;;;;;;18.95;5.38;;;;;;;7.40;100.00;95164.16;5059309;28;21319;-80
2022/02/17 09:49:03;;;;;;;21.60;5.47;;;;;;;7.47;100.00;95164.63;5094390;28;24430;-79
2022/02/17 09:51:31;;;;;;;20.63;5.30;;;;;;;7.54;100.00;95185.69;5094195;28;21293;-81
2022/02/17 09:54:00;;;;;;;18.77;4.88;;;;;;;7.94;100.00;95174.59;5093014;28;20780;-79
2022/02/17 09:56:27;;;;;;;24.02;5.75;;;;;;;8.09;100.00;95159.09;5092266;28;20809;-80
2022/02/17 09:58:55;;;;;;;13.73;4.38;;;;;;;8.14;100.00;95160.47;5093199;28;24800;-80
2022/02/17 10:01:27;;;;;;;17.30;4.88;;;;;;;8.08;100.00;95168.56;5091003;28;24442;-79
2022/02/17 10:04:21;;;;;;;16.48;4.78;;;;;;;8.13;100.00;95179.44;5081350;28;24521;-81
2022/02/17 10:06:50;;;;;;;12.93;5.07;;;;;;;8.19;98.88;95188.53;5097614;28;24426;-80
2022/02/17 10:09:18;;;;;;;21.90;4.63;;;;;;;8.39;100.00;95187.34;5096974;28;24432;-80
2022/02/17 10:11:46;;;;;;;18.70;4.83;;;;;;;8.35;98.14;95194.41;5095792;28;25030;-76
2022/02/17 10:14:15;;;;;;;17.37;4.80;;;;;;;8.32;100.00;95207.50;5094603;28;24971;-80
2022/02/17 10:16:53;;;;;;;15.95;4.63;;;;;;;8.29;100.00;95207.69;5079119;28;24446;-79
2022/02/17 10:19:21;;;;;;;20.42;4.55;;;;;;;8.54;100.00;95196.69;5075737;28;24415;-80
2022/02/17 10:21:48;;;;;;;17.25;4.78;;;;;;;8.48;96.91;95221.09;5075447;28;24430;-79
2022/02/17 10:24:31;;;;;;;17.50;4.88;;;;;;;8.26;100.00;95223.34;5081187;28;24431;-80
2022/02/17 10:27:05;;;;;;;15.10;4.03;;;;;;;8.09;98.19;95226.16;5076114;28;24438;-79
2022/02/17 10:29:34;;;;;;;16.88;4.78;;;;;;;8.03;100.00;95231.69;5076109;28;24415;-79
2022/02/17 10:32:12;;;;;;;20.55;4.90;;;;;;;7.94;100.00;95226.19;5083227;28;24426;-79
2022/02/17 10:34:42;;;;;;;18.05;4.88;;;;;;;8.03;100.00;95219.63;5093888;28;24429;-78
2022/02/17 10:37:10;;;;;;;14.10;4.55;;;;;;;7.97;100.00;95227.72;5084655;28;24457;-78
2022/02/17 10:39:42;;;;;;;18.58;5.90;;;;;;;8.08;100.00;95234.81;5091878;28;24871;-77
2022/02/17 10:42:09;;;;;;;16.73;5.05;;;;;;;8.14;100.00;95232.69;5089997;28;24838;-77
2022/02/17 10:44:38;;;;;;;17.27;4.90;;;;;;;8.10;100.00;95257.00;5099379;28;24993;-77
2022/02/17 10:47:16;;;;;;;18.08;5.05;;;;;;;8.21;100.00;95248.63;5093394;28;24438;-77
2022/02/17 10:49:45;;;;;;;22.02;5.78;;;;;;;8.24;99.93;95256.16;5114729;28;20811;-78
2022/02/17 10:52:13;;;;;;;15.02;4.47;;;;;;;8.20;94.38;95249.53;5113644;28;24433;-79
2022/02/17 10:54:40;;;;;;;17.23;4.38;;;;;;;8.16;95.17;95237.75;5093729;28;24838;-78
2022/02/17 10:57:07;;;;;;;19.90;4.57;;;;;;;8.22;95.18;95239.94;5092227;28;24481;-78
2022/02/17 11:02:23;;;;;;;20.33;4.90;;;;;;;8.48;90.91;95269.31;5092595;28;20787;-77
2022/02/17 11:04:51;;;;;;;14.20;4.63;;;;;;;8.48;90.37;95266.72;5092664;28;20825;-78
2022/02/17 11:07:18;;;;;;;15.02;4.70;;;;;;;8.47;88.09;95258.16;5081636;28;20830;-78
2022/02/17 11:09:46;;;;;;;20.85;4.90;;;;;;;8.73;87.35;95269.44;5083366;28;20767;-78
2022/02/17 11:12:16;;;;;;;18.83;5.15;;;;;;;8.55;87.32;95260.28;5104706;28;24433;-78
2022/02/17 11:14:43;;;;;;;18.25;4.97;;;;;;;8.41;84.29;95253.38;5097624;28;24426;-77
2022/02/17 11:17:13;;;;;;;20.13;5.72;;;;;;;8.41;84.77;95268.03;5073101;28;24866;-78
2022/02/17 11:19:41;;;;;;;25.13;6.10;;;;;;;8.37;83.57;95256.22;5076940;28;24827;-78
2022/02/17 11:22:12;;;;;;;18.50;5.35;;;;;;;8.29;84.17;95259.28;5078002;28;20772;-78
2022/02/17 11:24:49;;;;;;;18.13;6.20;;;;;;;8.22;82.67;95271.72;5092755;28;21368;-77
2022/02/17 11:27:16;;;;;;;19.05;5.18;;;;;;;8.24;85.13;95263.91;5074966;28;20776;-78
2022/02/17 11:29:43;;;;;;;17.63;5.03;;;;;;;8.28;80.62;95267.13;5075978;28;24484;-77
2022/02/17 11:32:13;;;;;;;18.73;5.35;;;;;;;8.21;80.65;95284.72;5077983;28;24537;-78
2022/02/17 11:34:43;;;;;;;22.17;5.68;;;;;;;8.30;82.51;95299.63;5094459;28;20740;-78
2022/02/17 11:37:33;;;;;;;21.33;6.22;;;;;;;8.31;80.89;95292.75;5093414;28;20791;-77
2022/02/17 11:40:02;;;;;;;18.13;5.45;;;;;;;8.20;78.42;95278.75;5091720;28;20644;-77